createdAt,value
2023-04-14T00:01:16.347Z,94388.06
2023-04-14T00:03:44.685Z,94390.38
2023-04-14T00:06:12.879Z,94387.56
2023-04-14T00:08:42.234Z,94401.88
2023-04-14T00:11:10.511Z,94391.34
2023-04-14T00:13:39.046Z,94398.06
2023-04-14T00:16:08.345Z,94390.91
2023-04-14T00:18:36.276Z,94391.69
2023-04-14T00:21:04.446Z,94388.91
2023-04-14T00:23:32.390Z,94385.81
2023-04-14T00:26:01.813Z,94372.28
2023-04-14T00:28:29.748Z,94369.13
2023-04-14T00:30:59.994Z,94371.34
2023-04-14T00:33:27.943Z,94377.53
2023-04-14T00:35:55.987Z,94324.94
2023-04-14T00:38:24.175Z,94378.16
2023-04-14T00:40:52.221Z,94379.94
2023-04-14T00:43:21.731Z,94376.41
2023-04-14T00:45:52.557Z,94379.53
2023-04-14T00:48:21.131Z,94371.91
2023-04-14T00:50:49.311Z,94368.13
2023-04-14T00:53:17.421Z,94370.16
2023-04-14T00:55:46.025Z,94371.34
2023-04-14T00:58:16.304Z,94316.03
2023-04-14T01:00:52.407Z,94357.00
2023-04-14T01:03:20.988Z,94348.69
2023-04-14T01:05:49.091Z,94360.84
2023-04-14T01:08:18.045Z,94358.06
2023-04-14T01:10:56.644Z,94348.31
2023-04-14T01:13:36.082Z,94359.50
2023-04-14T01:16:14.716Z,94351.25
2023-04-14T01:18:51.846Z,94353.19
2023-04-14T01:21:26.373Z,94353.94
2023-04-14T01:24:24.613Z,94364.34
2023-04-14T01:27:04.225Z,94374.81
2023-04-14T01:29:46.130Z,94312.06
2023-04-14T01:32:21.266Z,94360.09
2023-04-14T01:34:55.024Z,94365.19
2023-04-14T01:37:34.586Z,94352.53
2023-04-14T01:40:08.195Z,94344.13
2023-04-14T01:42:39.054Z,94352.66
2023-04-14T01:45:12.972Z,94352.75
2023-04-14T01:47:44.702Z,94304.34
2023-04-14T01:50:14.609Z,94336.91
2023-04-14T01:52:47.671Z,94354.81
2023-04-14T01:55:18.504Z,94317.63
2023-04-14T01:57:50.729Z,94339.19
2023-04-14T02:00:21.419Z,94338.59
2023-04-14T02:02:53.425Z,94338.91
2023-04-14T02:05:23.670Z,94345.31
2023-04-14T02:07:54.308Z,94322.53
2023-04-14T02:10:24.712Z,94299.16
2023-04-14T02:12:56.494Z,94353.84
2023-04-14T02:15:26.264Z,94357.13
2023-04-14T02:17:58.348Z,94337.31
2023-04-14T02:20:29.134Z,94324.41
2023-04-14T02:22:57.165Z,94365.72
2023-04-14T02:25:27.451Z,94358.38
2023-04-14T02:27:58.824Z,94353.88
2023-04-14T02:30:30.760Z,94341.81
2023-04-14T02:33:06.235Z,94347.63
2023-04-14T02:35:44.304Z,94304.25
2023-04-14T02:38:19.599Z,94341.69
2023-04-14T02:40:47.589Z,94291.84
2023-04-14T02:43:21.569Z,94352.19
2023-04-14T02:45:52.683Z,94343.31
2023-04-14T02:48:26.037Z,94350.34
2023-04-14T02:50:56.000Z,94365.00
2023-04-14T02:53:26.466Z,94353.94
2023-04-14T02:55:54.477Z,94295.31
2023-04-14T02:58:22.774Z,94329.53
2023-04-14T03:00:52.089Z,94324.72
2023-04-14T03:03:21.715Z,94341.78
2023-04-14T03:05:49.812Z,94337.88
2023-04-14T03:08:19.083Z,94327.25
2023-04-14T03:10:48.762Z,94330.69
2023-04-14T03:13:19.239Z,94272.91
2023-04-14T03:15:48.401Z,94312.28
2023-04-14T03:18:18.040Z,94308.47
2023-04-14T03:20:48.727Z,94315.00
2023-04-14T03:23:19.665Z,94311.50
2023-04-14T03:25:48.664Z,94329.09
2023-04-14T03:28:22.971Z,94335.97
2023-04-14T03:30:54.233Z,94335.34
2023-04-14T03:33:25.003Z,94301.91
2023-04-14T03:35:58.524Z,94314.63
2023-04-14T03:38:28.957Z,94287.88
2023-04-14T03:41:01.265Z,94300.25
2023-04-14T03:43:29.964Z,94277.78
2023-04-14T03:45:58.225Z,94281.66
2023-04-14T03:48:29.899Z,94225.50
2023-04-14T03:51:02.310Z,94262.63
2023-04-14T03:53:31.502Z,94250.28
2023-04-14T03:56:00.912Z,94269.47
2023-04-14T03:58:31.196Z,94268.91
2023-04-14T04:01:00.230Z,94259.91
2023-04-14T04:03:30.131Z,94243.78
2023-04-14T04:06:00.180Z,94263.97
2023-04-14T04:08:29.002Z,94262.06
2023-04-14T04:10:58.842Z,94274.47
2023-04-14T04:13:28.588Z,94255.75
2023-04-14T04:15:56.784Z,94207.28
2023-04-14T04:18:28.209Z,94273.69
2023-04-14T04:21:00.476Z,94216.63
2023-04-14T04:23:32.589Z,94264.69
2023-04-14T04:26:01.096Z,94264.59
2023-04-14T04:28:29.300Z,94263.59
2023-04-14T04:30:59.350Z,94276.31
2023-04-14T04:33:31.514Z,94279.50
2023-04-14T04:36:02.569Z,94279.66
2023-04-14T04:38:30.494Z,94279.78
2023-04-14T04:40:58.551Z,94252.38
2023-04-14T04:43:26.566Z,94274.91
2023-04-14T04:46:12.769Z,94297.22
2023-04-14T04:48:40.834Z,94308.28
2023-04-14T04:51:10.874Z,94311.47
2023-04-14T04:53:38.803Z,94322.00
2023-04-14T04:56:07.863Z,94162.00
2023-04-14T04:58:36.113Z,94300.16
2023-04-14T05:01:08.937Z,94295.50
2023-04-14T05:03:37.090Z,94296.91
2023-04-14T05:06:05.478Z,94293.28
2023-04-14T05:08:34.838Z,94283.47
2023-04-14T05:11:02.792Z,94273.47
2023-04-14T05:13:30.728Z,94277.63
2023-04-14T05:16:04.933Z,94279.41
2023-04-14T05:18:33.116Z,94285.69
2023-04-14T05:21:04.027Z,94281.09
2023-04-14T05:23:35.448Z,94272.69
2023-04-14T05:26:24.349Z,94279.53
2023-04-14T05:28:52.254Z,94251.94
2023-04-14T05:31:20.478Z,94218.94
2023-04-14T05:33:48.486Z,94251.31
2023-04-14T05:36:16.470Z,94229.78
2023-04-14T05:38:45.936Z,94223.19
2023-04-14T05:41:13.979Z,94219.44
2023-04-14T05:43:41.920Z,94237.25
2023-04-14T05:46:09.945Z,94214.09
2023-04-14T05:48:38.251Z,94221.88
2023-04-14T05:51:06.407Z,94197.13
2023-04-14T05:53:34.393Z,94198.78
2023-04-14T05:56:03.697Z,94200.44
2023-04-14T05:58:31.614Z,94201.31
2023-04-14T06:00:59.657Z,94198.19
2023-04-14T06:03:27.809Z,94185.72
2023-04-14T06:05:56.164Z,94207.38
2023-04-14T06:08:25.491Z,94197.03
2023-04-14T06:10:53.609Z,94196.66
2023-04-14T06:13:23.020Z,94197.47
2023-04-14T06:15:51.243Z,94187.38
2023-04-14T06:18:19.245Z,94191.59
2023-04-14T06:20:47.252Z,94165.56
2023-04-14T06:23:15.203Z,94160.22
2023-04-14T06:25:43.193Z,94164.94
2023-04-14T06:28:11.200Z,94146.66
2023-04-14T06:30:40.540Z,94146.41
2023-04-14T06:33:08.527Z,94146.50
2023-04-14T06:35:36.883Z,94134.97
2023-04-14T06:38:05.003Z,94109.75
2023-04-14T06:40:33.017Z,94108.66
2023-04-14T06:43:01.850Z,94108.66
2023-04-14T06:45:29.984Z,94119.44
2023-04-14T06:47:59.372Z,94123.69
2023-04-14T06:50:27.432Z,94130.31
2023-04-14T06:52:55.378Z,94115.66
2023-04-14T06:55:23.375Z,94107.94
2023-04-14T06:57:51.271Z,94089.34
2023-04-14T07:00:19.803Z,94080.09
2023-04-14T07:02:48.332Z,94066.25
2023-04-14T07:05:18.652Z,94062.03
2023-04-14T07:07:47.941Z,94062.44
2023-04-14T07:10:16.104Z,94041.09
2023-04-14T07:12:44.289Z,94075.03
2023-04-14T07:15:14.286Z,94080.09
2023-04-14T07:17:44.628Z,94038.34
2023-04-14T07:20:12.956Z,94063.00
2023-04-14T07:22:44.661Z,93955.41
2023-04-14T07:25:12.626Z,94062.47
2023-04-14T07:27:47.157Z,94049.22
2023-04-14T07:30:21.589Z,94052.84
2023-04-14T07:32:49.839Z,94048.50
2023-04-14T07:35:18.107Z,94048.84
2023-04-14T07:37:47.400Z,94035.03
2023-04-14T07:40:16.000Z,94057.09
2023-04-14T07:42:43.992Z,94042.41
2023-04-14T07:45:12.329Z,94045.19
2023-04-14T07:47:40.345Z,94040.59
2023-04-14T07:50:09.271Z,94035.72
2023-04-14T07:52:37.398Z,94032.25
2023-04-14T07:55:07.199Z,94044.16
2023-04-14T07:57:35.722Z,94039.56
2023-04-14T08:00:04.338Z,94054.28
2023-04-14T08:02:33.226Z,94040.78
2023-04-14T08:05:01.362Z,94016.22
2023-04-14T08:07:29.678Z,94070.63
2023-04-14T08:10:00.053Z,94043.03
2023-04-14T08:12:29.518Z,94044.28
2023-04-14T08:14:57.672Z,94019.97
2023-04-14T08:17:25.756Z,94042.16
2023-04-14T08:19:53.785Z,94055.94
2023-04-14T08:22:21.853Z,94008.81
2023-04-14T08:24:49.842Z,94021.31
2023-04-14T08:27:17.834Z,94031.41
2023-04-14T08:29:47.196Z,94034.00
2023-04-14T08:32:15.899Z,94021.00
2023-04-14T08:35:36.092Z,94036.28
2023-04-14T08:37:32.388Z,94042.03
2023-04-14T08:40:00.675Z,94045.63
2023-04-14T08:42:28.765Z,94045.88
2023-04-14T08:44:59.096Z,94042.03
2023-04-14T08:47:30.696Z,94050.47
2023-04-14T08:50:05.323Z,94034.47
2023-04-14T08:52:35.933Z,94071.94
2023-04-14T08:55:05.434Z,94004.31
2023-04-14T08:57:33.393Z,94069.09
2023-04-14T09:00:05.032Z,94060.28
2023-04-14T09:02:34.109Z,94069.25
2023-04-14T09:05:03.278Z,94076.13
2023-04-14T09:07:31.625Z,94075.75
2023-04-14T09:09:59.961Z,94053.72
2023-04-14T09:12:29.303Z,94084.31
2023-04-14T09:14:59.369Z,94058.13
2023-04-14T09:17:30.622Z,94064.91
2023-04-14T09:20:37.338Z,94092.34
2023-04-14T09:22:47.221Z,94068.03
2023-04-14T09:25:18.787Z,94064.47
2023-04-14T09:27:46.910Z,94084.63
2023-04-14T09:30:15.733Z,94067.72
2023-04-14T09:32:45.365Z,94069.63
2023-04-14T09:35:14.298Z,94101.59
2023-04-14T09:37:46.578Z,94062.00
2023-04-14T09:40:29.056Z,94104.84
2023-04-14T09:42:58.130Z,94058.63
2023-04-14T09:45:42.101Z,94106.91
2023-04-14T09:48:13.135Z,94034.31
2023-04-14T09:51:06.702Z,94093.50
2023-04-14T09:53:36.562Z,94130.59
2023-04-14T09:56:06.647Z,94169.97
2023-04-14T09:58:36.403Z,94097.91
2023-04-14T10:01:05.808Z,94129.97
2023-04-14T10:03:37.543Z,94107.91
2023-04-14T10:06:09.878Z,94153.47
2023-04-14T10:08:40.492Z,94139.47
2023-04-14T10:11:19.926Z,94169.72
2023-04-14T10:13:49.106Z,94162.56
2023-04-14T10:16:17.538Z,94195.13
2023-04-14T10:18:48.083Z,94191.94
2023-04-14T10:21:17.533Z,94215.50
2023-04-14T10:23:46.407Z,94217.19
2023-04-14T10:26:15.140Z,94234.28
2023-04-14T10:28:46.505Z,94268.31
2023-04-14T10:31:20.457Z,94278.50
2023-04-14T10:33:49.854Z,94267.59
2023-04-14T10:36:25.055Z,94287.66
2023-04-14T10:39:00.892Z,94288.28
2023-04-14T10:41:38.224Z,94351.34
2023-04-14T10:44:06.232Z,94352.31
2023-04-14T10:46:44.715Z,94349.13
2023-04-14T10:49:14.803Z,94360.63
2023-04-14T10:51:44.027Z,94388.00
2023-04-14T10:54:17.293Z,94428.28
2023-04-14T10:57:09.528Z,94446.16
2023-04-14T10:59:37.557Z,94446.91
2023-04-14T11:02:05.879Z,94467.00
2023-04-14T11:04:35.506Z,94483.09
2023-04-14T11:07:10.345Z,94490.25
2023-04-14T11:09:38.329Z,94504.50
2023-04-14T11:12:24.243Z,94503.94
2023-04-14T11:14:57.185Z,94503.09
2023-04-14T11:17:25.309Z,94461.41
2023-04-14T11:19:56.406Z,94425.53
2023-04-14T11:22:41.621Z,94505.00
2023-04-14T11:25:13.374Z,94490.19
2023-04-14T11:27:41.832Z,94506.19
2023-04-14T11:30:14.978Z,94507.44
2023-04-14T11:32:51.349Z,94515.81
2023-04-14T11:35:21.979Z,94536.09
2023-04-14T11:37:50.198Z,94517.09
2023-04-14T11:40:21.093Z,94554.34
2023-04-14T11:42:54.311Z,94542.72
2023-04-14T11:45:23.462Z,94551.66
2023-04-14T11:48:03.470Z,94592.53
2023-04-14T11:50:36.025Z,94592.47
2023-04-14T11:53:08.613Z,94582.16
2023-04-14T11:55:37.050Z,94538.09
2023-04-14T11:58:05.107Z,94604.25
2023-04-14T12:00:33.420Z,94619.84
2023-04-14T12:03:03.868Z,94618.38
2023-04-14T12:05:34.402Z,94601.63
2023-04-14T12:08:04.588Z,94595.78
2023-04-14T12:10:33.364Z,94596.91
2023-04-14T12:13:02.847Z,94591.66
2023-04-14T12:15:32.391Z,94592.47
2023-04-14T12:18:01.260Z,94594.63
2023-04-14T12:20:30.624Z,94600.09
2023-04-14T12:23:04.491Z,94599.56
2023-04-14T12:25:33.989Z,94574.09
2023-04-14T12:28:06.246Z,94588.94
2023-04-14T12:30:34.412Z,94586.84
2023-04-14T12:33:10.196Z,94566.81
2023-04-14T12:35:38.981Z,94610.22
2023-04-14T12:38:13.638Z,94599.16
2023-04-14T12:40:43.981Z,94592.19
2023-04-14T12:43:12.222Z,94577.81
2023-04-14T12:45:44.764Z,94564.50
2023-04-14T12:48:14.030Z,94559.38
2023-04-14T12:50:42.169Z,94558.38
2023-04-14T12:53:27.462Z,94545.88
2023-04-14T12:56:08.943Z,94550.56
2023-04-14T12:58:37.886Z,94540.78
2023-04-14T13:01:07.889Z,94512.31
2023-04-14T13:03:41.049Z,94543.41
2023-04-14T13:06:11.494Z,94543.41
2023-04-14T13:08:44.660Z,94520.03
2023-04-14T13:11:13.002Z,94556.78
2023-04-14T13:13:41.102Z,94560.53
2023-04-14T13:16:15.368Z,94557.59
2023-04-14T13:18:50.629Z,94560.44
2023-04-14T13:21:18.814Z,94527.22
2023-04-14T13:23:48.574Z,94510.50
2023-04-14T13:26:16.527Z,94527.97
2023-04-14T13:28:45.047Z,94562.09
2023-04-14T13:31:13.650Z,94562.03
2023-04-14T13:33:41.694Z,94564.31
2023-04-14T13:36:09.992Z,94582.69
2023-04-14T13:38:37.936Z,94572.94
2023-04-14T13:41:07.397Z,94548.16
2023-04-14T13:43:35.476Z,94561.06
2023-04-14T13:46:03.870Z,94551.28
2023-04-14T13:48:32.640Z,94518.38
2023-04-14T13:51:01.981Z,94469.41
2023-04-14T13:53:30.088Z,94476.34
2023-04-14T13:55:58.050Z,94476.84
2023-04-14T13:58:27.599Z,94475.84
2023-04-14T14:00:56.477Z,94465.97
2023-04-14T14:03:25.629Z,94488.84
2023-04-14T14:05:54.068Z,94444.56
2023-04-14T14:08:22.145Z,94441.69
2023-04-14T14:10:51.554Z,94397.50
2023-04-14T14:13:20.738Z,94436.78
2023-04-14T14:15:50.140Z,94440.31
2023-04-14T14:18:18.209Z,94376.75
2023-04-14T14:20:47.271Z,94405.41
2023-04-14T14:23:16.490Z,94247.69
2023-04-14T14:25:45.142Z,94404.91
2023-04-14T14:28:13.493Z,94380.59
2023-04-14T14:30:41.757Z,94339.00
2023-04-14T14:33:11.493Z,94382.34
2023-04-14T14:35:39.782Z,94249.50
2023-04-14T14:38:08.270Z,94360.13
2023-04-14T14:40:36.594Z,94397.25
2023-04-14T14:43:05.285Z,94393.16
2023-04-14T14:45:33.794Z,94400.59
2023-04-14T14:48:02.345Z,94341.16
2023-04-14T14:50:31.845Z,94336.13
2023-04-14T14:52:59.721Z,94372.34
2023-04-14T14:55:27.743Z,94413.25
2023-04-14T14:57:55.735Z,94411.53
2023-04-14T15:00:23.759Z,94338.59
2023-04-14T15:02:52.312Z,94354.56
2023-04-14T15:05:21.517Z,94362.75
2023-04-14T15:07:51.125Z,94348.19
2023-04-14T15:10:19.338Z,94337.50
2023-04-14T15:12:47.285Z,94357.81
2023-04-14T15:15:21.135Z,94348.81
2023-04-14T15:17:49.837Z,94354.41
2023-04-14T15:20:18.288Z,94360.91
2023-04-14T15:25:46.054Z,94385.69
2023-04-14T15:28:15.386Z,94382.66
2023-04-14T15:30:43.456Z,94388.50
2023-04-14T15:33:11.682Z,94381.28
2023-04-14T15:35:40.466Z,94382.59
2023-04-14T15:38:10.841Z,94385.38
2023-04-14T15:40:39.811Z,94384.19
2023-04-14T15:43:08.378Z,94361.63
2023-04-14T15:45:36.389Z,94381.84
2023-04-14T15:48:04.439Z,94387.09
2023-04-14T15:50:32.597Z,94384.72
2023-04-14T15:53:00.712Z,94381.56
2023-04-14T15:55:30.010Z,94375.25
2023-04-14T15:57:59.138Z,94366.72
2023-04-14T16:00:28.225Z,94379.19
2023-04-14T16:02:59.674Z,94393.16
2023-04-14T16:05:27.977Z,94391.97
2023-04-14T16:07:56.073Z,94391.84
2023-04-14T16:10:24.643Z,94385.25
2023-04-14T16:12:54.107Z,94382.47
2023-04-14T16:15:23.097Z,94217.34
2023-04-14T16:17:55.067Z,94343.88
2023-04-14T16:20:24.027Z,94380.03
2023-04-14T16:23:02.765Z,94280.97
2023-04-14T16:25:35.278Z,94369.34
2023-04-14T16:28:08.015Z,94356.75
2023-04-14T16:30:44.828Z,94375.75
2023-04-14T16:33:15.903Z,94369.03
2023-04-14T16:35:44.372Z,94391.81
2023-04-14T16:38:12.891Z,94387.50
2023-04-14T16:40:45.951Z,94387.38
2023-04-14T16:43:15.873Z,94393.53
2023-04-14T16:45:46.857Z,94392.31
2023-04-14T16:48:17.706Z,94394.16
2023-04-14T16:50:54.091Z,94390.34
2023-04-14T16:53:22.289Z,94384.03
2023-04-14T16:55:52.336Z,94399.66
2023-04-14T16:58:21.906Z,94401.25
2023-04-14T17:00:50.129Z,94409.84
2023-04-14T17:03:25.727Z,94410.16
2023-04-14T17:05:53.785Z,94401.63
2023-04-14T17:08:23.916Z,94384.81
2023-04-14T17:10:51.911Z,94385.53
2023-04-14T17:13:22.126Z,94390.06
2023-04-14T17:15:58.879Z,94378.63
2023-04-14T17:18:36.641Z,94396.50
2023-04-14T17:21:05.760Z,94413.56
2023-04-14T17:23:36.627Z,94426.13
2023-04-14T17:26:06.939Z,94430.75
2023-04-14T17:28:46.161Z,94416.31
2023-04-14T17:31:15.081Z,94302.31
2023-04-14T17:33:44.731Z,94415.94
2023-04-14T17:36:16.223Z,94417.22
2023-04-14T17:38:46.099Z,94414.84
2023-04-14T17:41:15.728Z,94423.44
2023-04-14T17:43:46.023Z,94416.81
2023-04-14T17:46:34.769Z,94429.06
2023-04-14T17:49:06.240Z,94436.84
2023-04-14T17:51:35.452Z,94433.03
2023-04-14T17:54:05.750Z,94452.59
2023-04-14T17:56:34.153Z,94456.50
2023-04-14T17:59:04.855Z,94436.94
2023-04-14T18:01:35.460Z,94450.34
2023-04-14T18:04:04.582Z,94459.63
2023-04-14T18:06:34.987Z,94457.53
2023-04-14T18:09:04.008Z,94463.44
2023-04-14T18:11:32.114Z,94451.69
2023-04-14T18:14:02.965Z,94446.53
2023-04-14T18:16:32.905Z,94455.53
2023-04-14T18:19:01.111Z,94464.06
2023-04-14T18:21:29.726Z,94454.50
2023-04-14T18:26:28.723Z,94464.13
2023-04-14T18:28:57.391Z,94479.41
2023-04-14T18:31:25.479Z,94459.22
2023-04-14T18:33:55.200Z,94448.53
2023-04-14T18:36:23.262Z,94462.78
2023-04-14T18:38:51.275Z,94462.31
2023-04-14T18:41:19.916Z,94469.09
2023-04-14T18:43:48.079Z,94462.59
2023-04-14T18:46:16.172Z,94443.88
2023-04-14T18:48:44.831Z,94449.94
2023-04-14T18:51:14.208Z,94458.41
2023-04-14T18:53:44.732Z,94450.34
2023-04-14T18:56:12.774Z,94462.53
2023-04-14T18:58:41.140Z,94428.44
2023-04-14T19:01:09.839Z,94455.38
2023-04-14T19:03:38.344Z,94446.47
2023-04-14T19:06:06.967Z,94453.81
2023-04-14T19:08:38.807Z,94461.19
2023-04-14T19:11:07.289Z,94462.31
2023-04-14T19:13:35.852Z,94452.78
2023-04-14T19:16:08.576Z,94451.09
2023-04-14T19:18:36.861Z,94450.56
2023-04-14T19:21:05.190Z,94462.47
2023-04-14T19:23:33.497Z,94470.13
2023-04-14T19:26:03.133Z,94464.09
2023-04-14T19:28:31.195Z,94474.91
2023-04-14T19:30:59.156Z,94467.00
2023-04-14T19:33:28.117Z,94461.53
2023-04-14T19:35:56.055Z,94470.59
2023-04-14T19:38:24.164Z,94484.00
2023-04-14T19:40:52.886Z,94489.31
2023-04-14T19:43:22.643Z,94496.84
2023-04-14T19:45:53.240Z,94503.19
2023-04-14T19:48:23.872Z,94494.38
2023-04-14T19:50:55.035Z,94472.66
2023-04-14T19:53:24.861Z,94436.84
2023-04-14T19:55:55.926Z,94466.59
2023-04-14T19:58:27.703Z,94416.16
2023-04-14T20:00:57.365Z,94479.25
2023-04-14T20:03:26.498Z,94486.66
2023-04-14T20:05:56.805Z,94481.50
2023-04-14T20:08:25.698Z,94479.50
2023-04-14T20:10:54.511Z,94502.34
2023-04-14T20:13:24.163Z,94427.75
2023-04-14T20:15:55.130Z,94493.28
2023-04-14T20:18:23.466Z,94489.97
2023-04-14T20:20:51.594Z,94495.59
2023-04-14T20:23:19.881Z,94507.47
2023-04-14T20:25:48.693Z,94505.91
2023-04-14T20:28:19.565Z,94515.78
2023-04-14T20:30:49.565Z,94508.75
2023-04-14T20:33:22.458Z,94491.41
2023-04-14T20:35:51.720Z,94507.09
2023-04-14T20:38:20.497Z,94511.03
2023-04-14T20:40:48.544Z,94513.28
2023-04-14T20:43:17.456Z,94515.97
2023-04-14T20:45:45.976Z,94516.38
2023-04-14T20:48:15.431Z,94526.53
2023-04-14T20:50:49.699Z,94517.69
2023-04-14T20:53:17.971Z,94521.75
2023-04-14T20:55:46.204Z,94517.72
2023-04-14T20:58:15.734Z,94518.19
2023-04-14T21:00:43.899Z,94508.34
2023-04-14T21:03:12.363Z,94513.69
2023-04-14T21:05:40.572Z,94510.06
2023-04-14T21:08:10.165Z,94526.91
2023-04-14T21:11:14.276Z,94521.22
2023-04-14T21:15:26.310Z,94520.66
2023-04-14T21:16:14.824Z,94510.59
2023-04-14T21:18:42.827Z,94529.50
2023-04-14T21:21:12.444Z,94530.84
2023-04-14T21:23:41.765Z,94496.16
2023-04-14T21:26:09.767Z,94523.59
2023-04-14T21:28:38.183Z,94456.22
2023-04-14T21:31:06.688Z,94534.78
2023-04-14T21:33:37.496Z,94509.81
2023-04-14T21:36:05.507Z,94519.19
2023-04-14T21:38:33.630Z,94493.16
2023-04-14T21:41:03.076Z,94532.53
2023-04-14T21:43:31.000Z,94480.03
2023-04-14T21:45:59.341Z,94533.50
2023-04-14T21:48:27.805Z,94524.59
2023-04-14T21:50:56.260Z,94520.53
2023-04-14T21:53:24.579Z,94541.03
2023-04-14T21:56:03.427Z,94523.63
2023-04-14T21:58:39.488Z,94540.44
2023-04-14T22:01:09.630Z,94535.44
2023-04-14T22:03:40.530Z,94528.25
2023-04-14T22:06:10.087Z,94546.41
2023-04-14T22:08:38.248Z,94529.72
2023-04-14T22:11:07.044Z,94527.03
2023-04-14T22:13:35.006Z,94552.69
2023-04-14T22:16:04.371Z,94533.91
2023-04-14T22:18:32.331Z,94526.53
2023-04-14T22:21:00.278Z,94559.44
2023-04-14T22:23:28.759Z,94555.66
2023-04-14T22:25:56.959Z,94496.94
2023-04-14T22:28:24.966Z,94544.91
2023-04-14T22:30:52.971Z,94550.50
2023-04-14T22:33:22.939Z,94567.50
2023-04-14T22:35:51.291Z,94533.34
2023-04-14T22:38:21.669Z,94536.59
2023-04-14T22:40:52.274Z,94532.69
2023-04-14T22:43:20.644Z,94538.81
2023-04-14T22:45:51.206Z,94539.06
2023-04-14T22:48:19.286Z,94537.28
2023-04-14T22:50:48.670Z,94524.28
2023-04-14T22:53:16.663Z,94531.25
2023-04-14T22:55:45.203Z,94515.66
2023-04-14T22:58:16.881Z,94509.06
2023-04-14T23:00:46.158Z,94470.53
2023-04-14T23:03:14.260Z,94518.91
2023-04-14T23:05:42.922Z,94525.41
2023-04-14T23:08:12.202Z,94519.25
2023-04-14T23:10:40.146Z,94545.56
2023-04-14T23:13:08.309Z,94548.47
2023-04-14T23:15:36.475Z,94579.25
2023-04-14T23:18:05.802Z,94590.91
2023-04-14T23:20:33.944Z,94579.91
2023-04-14T23:23:02.753Z,94590.00
2023-04-14T23:25:32.513Z,94581.16
2023-04-14T23:28:00.436Z,94556.31
2023-04-14T23:30:28.807Z,94553.75
2023-04-14T23:32:56.929Z,94549.81
2023-04-14T23:35:25.013Z,94539.25
2023-04-14T23:37:53.259Z,94523.22
2023-04-14T23:40:21.451Z,94513.72
2023-04-14T23:42:50.722Z,94529.72
2023-04-14T23:45:18.651Z,94528.28
2023-04-14T23:47:46.561Z,94536.44
2023-04-14T23:50:14.563Z,94536.97
2023-04-14T23:52:42.753Z,94516.84
2023-04-14T23:55:10.873Z,94533.63
2023-04-14T23:57:38.786Z,94535.19
